sensor_id;sensor_type;location;lat;lon;timestamp;P1;durP1;ratioP1;P2;durP2;ratioP2
68315;SDS011;55508;54.368;18.406;2023-12-29T00:01:30;6.35;;;3.58;;
68315;SDS011;55508;54.368;18.406;2023-12-29T00:03:57;7.28;;;3.97;;
68315;SDS011;55508;54.368;18.406;2023-12-29T00:06:24;9.00;;;3.85;;
68315;SDS011;55508;54.368;18.406;2023-12-29T00:08:52;10.63;;;4.57;;
68315;SDS011;55508;54.368;18.406;2023-12-29T00:11:19;20.20;;;7.22;;
68315;SDS011;55508;54.368;18.406;2023-12-29T00:13:46;15.45;;;6.28;;
68315;SDS011;55508;54.368;18.406;2023-12-29T00:16:14;7.63;;;4.43;;
68315;SDS011;55508;54.368;18.406;2023-12-29T00:18:42;13.15;;;3.88;;
68315;SDS011;55508;54.368;18.406;2023-12-29T00:21:10;6.53;;;3.78;;
68315;SDS011;55508;54.368;18.406;2023-12-29T00:23:37;3.97;;;3.28;;
68315;SDS011;55508;54.368;18.406;2023-12-29T00:26:04;4.00;;;2.75;;
68315;SDS011;55508;54.368;18.406;2023-12-29T00:28:31;6.85;;;3.20;;
68315;SDS011;55508;54.368;18.406;2023-12-29T00:30:58;5.78;;;3.33;;
68315;SDS011;55508;54.368;18.406;2023-12-29T00:33:29;4.63;;;2.95;;
68315;SDS011;55508;54.368;18.406;2023-12-29T00:35:58;5.72;;;3.17;;
68315;SDS011;55508;54.368;18.406;2023-12-29T00:38:26;4.22;;;3.05;;
68315;SDS011;55508;54.368;18.406;2023-12-29T00:40:54;3.92;;;2.95;;
68315;SDS011;55508;54.368;18.406;2023-12-29T00:43:21;4.85;;;2.75;;
68315;SDS011;55508;54.368;18.406;2023-12-29T00:45:49;4.45;;;2.92;;
68315;SDS011;55508;54.368;18.406;2023-12-29T00:48:17;5.70;;;2.88;;
68315;SDS011;55508;54.368;18.406;2023-12-29T00:50:45;5.80;;;3.10;;
68315;SDS011;55508;54.368;18.406;2023-12-29T00:53:12;6.47;;;3.13;;
68315;SDS011;55508;54.368;18.406;2023-12-29T00:55:39;3.53;;;2.75;;
68315;SDS011;55508;54.368;18.406;2023-12-29T00:58:06;5.68;;;3.30;;
68315;SDS011;55508;54.368;18.406;2023-12-29T01:00:33;4.65;;;3.20;;
68315;SDS011;55508;54.368;18.406;2023-12-29T01:03:00;5.20;;;3.22;;
68315;SDS011;55508;54.368;18.406;2023-12-29T01:05:27;5.35;;;3.50;;
68315;SDS011;55508;54.368;18.406;2023-12-29T01:07:55;7.65;;;3.80;;
68315;SDS011;55508;54.368;18.406;2023-12-29T01:10:22;6.05;;;3.60;;
68315;SDS011;55508;54.368;18.406;2023-12-29T01:12:49;6.25;;;3.47;;
68315;SDS011;55508;54.368;18.406;2023-12-29T01:15:16;3.05;;;2.72;;
68315;SDS011;55508;54.368;18.406;2023-12-29T01:17:45;4.00;;;2.97;;
68315;SDS011;55508;54.368;18.406;2023-12-29T01:20:12;4.50;;;3.10;;
68315;SDS011;55508;54.368;18.406;2023-12-29T01:22:39;5.03;;;2.60;;
68315;SDS011;55508;54.368;18.406;2023-12-29T01:25:07;4.47;;;3.22;;
68315;SDS011;55508;54.368;18.406;2023-12-29T01:27:34;5.72;;;3.03;;
68315;SDS011;55508;54.368;18.406;2023-12-29T01:30:01;3.92;;;2.88;;
68315;SDS011;55508;54.368;18.406;2023-12-29T01:32:28;4.95;;;2.97;;
68315;SDS011;55508;54.368;18.406;2023-12-29T01:34:55;6.93;;;3.05;;
68315;SDS011;55508;54.368;18.406;2023-12-29T01:37:23;7.97;;;3.45;;
68315;SDS011;55508;54.368;18.406;2023-12-29T01:39:50;3.90;;;2.72;;
68315;SDS011;55508;54.368;18.406;2023-12-29T01:42:17;4.90;;;3.33;;
68315;SDS011;55508;54.368;18.406;2023-12-29T01:44:44;5.38;;;3.60;;
68315;SDS011;55508;54.368;18.406;2023-12-29T01:47:13;5.18;;;3.20;;
68315;SDS011;55508;54.368;18.406;2023-12-29T01:49:45;6.15;;;3.55;;
68315;SDS011;55508;54.368;18.406;2023-12-29T01:52:13;5.80;;;3.70;;
68315;SDS011;55508;54.368;18.406;2023-12-29T01:54:41;6.28;;;3.40;;
68315;SDS011;55508;54.368;18.406;2023-12-29T01:57:10;4.93;;;3.55;;
68315;SDS011;55508;54.368;18.406;2023-12-29T01:59:37;7.47;;;3.20;;
68315;SDS011;55508;54.368;18.406;2023-12-29T02:02:07;4.45;;;3.15;;
68315;SDS011;55508;54.368;18.406;2023-12-29T02:04:35;8.23;;;3.30;;
68315;SDS011;55508;54.368;18.406;2023-12-29T02:07:04;4.53;;;3.60;;
68315;SDS011;55508;54.368;18.406;2023-12-29T02:09:31;5.95;;;3.67;;
68315;SDS011;55508;54.368;18.406;2023-12-29T02:12:00;3.92;;;2.97;;
68315;SDS011;55508;54.368;18.406;2023-12-29T02:14:27;5.45;;;3.63;;
68315;SDS011;55508;54.368;18.406;2023-12-29T02:19:48;3.70;;;3.35;;
68315;SDS011;55508;54.368;18.406;2023-12-29T02:22:17;3.63;;;3.28;;
68315;SDS011;55508;54.368;18.406;2023-12-29T02:24:47;5.75;;;3.35;;
68315;SDS011;55508;54.368;18.406;2023-12-29T02:32:59;21.20;;;8.57;;
68315;SDS011;55508;54.368;18.406;2023-12-29T02:35:35;24.67;;;8.77;;
68315;SDS011;55508;54.368;18.406;2023-12-29T02:38:06;15.30;;;6.35;;
68315;SDS011;55508;54.368;18.406;2023-12-29T02:40:33;14.60;;;7.15;;
68315;SDS011;55508;54.368;18.406;2023-12-29T02:43:00;15.57;;;6.93;;
68315;SDS011;55508;54.368;18.406;2023-12-29T02:45:27;13.60;;;6.18;;
68315;SDS011;55508;54.368;18.406;2023-12-29T02:47:54;18.40;;;6.90;;
68315;SDS011;55508;54.368;18.406;2023-12-29T02:50:21;23.30;;;8.00;;
68315;SDS011;55508;54.368;18.406;2023-12-29T02:52:48;16.73;;;7.63;;
68315;SDS011;55508;54.368;18.406;2023-12-29T02:55:15;19.25;;;6.93;;
68315;SDS011;55508;54.368;18.406;2023-12-29T02:57:42;21.83;;;7.72;;
68315;SDS011;55508;54.368;18.406;2023-12-29T03:00:10;18.60;;;6.80;;
68315;SDS011;55508;54.368;18.406;2023-12-29T03:02:37;15.23;;;7.15;;
68315;SDS011;55508;54.368;18.406;2023-12-29T03:05:04;23.45;;;6.97;;
68315;SDS011;55508;54.368;18.406;2023-12-29T03:07:31;14.73;;;6.78;;
68315;SDS011;55508;54.368;18.406;2023-12-29T03:09:58;10.75;;;4.57;;
68315;SDS011;55508;54.368;18.406;2023-12-29T03:12:26;9.98;;;4.47;;
68315;SDS011;55508;54.368;18.406;2023-12-29T03:14:53;7.28;;;3.97;;
68315;SDS011;55508;54.368;18.406;2023-12-29T03:17:20;8.18;;;4.47;;
68315;SDS011;55508;54.368;18.406;2023-12-29T03:19:47;6.80;;;4.80;;
68315;SDS011;55508;54.368;18.406;2023-12-29T03:22:14;12.55;;;6.20;;
68315;SDS011;55508;54.368;18.406;2023-12-29T03:24:41;3.88;;;2.78;;
68315;SDS011;55508;54.368;18.406;2023-12-29T03:27:09;5.45;;;3.08;;
68315;SDS011;55508;54.368;18.406;2023-12-29T03:29:36;5.72;;;3.08;;
68315;SDS011;55508;54.368;18.406;2023-12-29T03:32:03;4.72;;;2.63;;
68315;SDS011;55508;54.368;18.406;2023-12-29T03:34:31;3.60;;;2.58;;
68315;SDS011;55508;54.368;18.406;2023-12-29T03:36:58;5.57;;;2.72;;
68315;SDS011;55508;54.368;18.406;2023-12-29T03:39:26;5.68;;;2.75;;
68315;SDS011;55508;54.368;18.406;2023-12-29T03:41:52;4.72;;;2.60;;
68315;SDS011;55508;54.368;18.406;2023-12-29T03:44:19;5.30;;;2.60;;
68315;SDS011;55508;54.368;18.406;2023-12-29T03:46:47;5.65;;;3.22;;
68315;SDS011;55508;54.368;18.406;2023-12-29T03:49:16;5.53;;;3.40;;
68315;SDS011;55508;54.368;18.406;2023-12-29T03:51:43;8.45;;;3.60;;
68315;SDS011;55508;54.368;18.406;2023-12-29T03:54:11;7.65;;;3.70;;
68315;SDS011;55508;54.368;18.406;2023-12-29T03:56:38;5.35;;;3.13;;
68315;SDS011;55508;54.368;18.406;2023-12-29T03:59:05;9.68;;;3.63;;
68315;SDS011;55508;54.368;18.406;2023-12-29T04:01:33;6.55;;;4.85;;
68315;SDS011;55508;54.368;18.406;2023-12-29T04:04:00;7.93;;;3.25;;
68315;SDS011;55508;54.368;18.406;2023-12-29T04:06:28;4.60;;;3.55;;
68315;SDS011;55508;54.368;18.406;2023-12-29T04:08:55;5.88;;;3.67;;
68315;SDS011;55508;54.368;18.406;2023-12-29T04:11:22;5.85;;;3.13;;
68315;SDS011;55508;54.368;18.406;2023-12-29T04:13:49;4.57;;;2.78;;
68315;SDS011;55508;54.368;18.406;2023-12-29T04:16:16;4.70;;;3.55;;
68315;SDS011;55508;54.368;18.406;2023-12-29T04:18:44;7.75;;;4.15;;
68315;SDS011;55508;54.368;18.406;2023-12-29T04:21:14;5.88;;;3.90;;
68315;SDS011;55508;54.368;18.406;2023-12-29T04:23:41;9.45;;;3.65;;
68315;SDS011;55508;54.368;18.406;2023-12-29T04:26:09;4.55;;;3.00;;
68315;SDS011;55508;54.368;18.406;2023-12-29T04:28:36;5.47;;;2.72;;
68315;SDS011;55508;54.368;18.406;2023-12-29T04:31:03;4.13;;;2.72;;
68315;SDS011;55508;54.368;18.406;2023-12-29T04:33:30;5.45;;;3.05;;
68315;SDS011;55508;54.368;18.406;2023-12-29T04:35:58;5.10;;;3.17;;
68315;SDS011;55508;54.368;18.406;2023-12-29T04:38:25;7.10;;;2.80;;
68315;SDS011;55508;54.368;18.406;2023-12-29T04:40:52;6.85;;;2.60;;
68315;SDS011;55508;54.368;18.406;2023-12-29T04:43:20;5.78;;;2.92;;
68315;SDS011;55508;54.368;18.406;2023-12-29T04:45:47;4.65;;;3.03;;
68315;SDS011;55508;54.368;18.406;2023-12-29T04:48:14;4.57;;;2.67;;
68315;SDS011;55508;54.368;18.406;2023-12-29T04:50:42;6.97;;;2.92;;
68315;SDS011;55508;54.368;18.406;2023-12-29T04:53:10;4.70;;;2.30;;
68315;SDS011;55508;54.368;18.406;2023-12-29T04:55:37;5.72;;;2.47;;
68315;SDS011;55508;54.368;18.406;2023-12-29T04:58:05;3.78;;;2.72;;
68315;SDS011;55508;54.368;18.406;2023-12-29T05:00:33;3.45;;;2.55;;
68315;SDS011;55508;54.368;18.406;2023-12-29T05:03:00;3.67;;;2.45;;
68315;SDS011;55508;54.368;18.406;2023-12-29T05:05:27;4.40;;;2.60;;
68315;SDS011;55508;54.368;18.406;2023-12-29T05:07:54;2.65;;;2.45;;
68315;SDS011;55508;54.368;18.406;2023-12-29T05:10:22;5.03;;;2.33;;
68315;SDS011;55508;54.368;18.406;2023-12-29T05:12:49;4.65;;;2.28;;
68315;SDS011;55508;54.368;18.406;2023-12-29T05:15:16;2.55;;;2.17;;
68315;SDS011;55508;54.368;18.406;2023-12-29T05:17:43;5.10;;;2.45;;
68315;SDS011;55508;54.368;18.406;2023-12-29T05:20:11;3.67;;;2.70;;
68315;SDS011;55508;54.368;18.406;2023-12-29T05:22:38;4.78;;;2.20;;
68315;SDS011;55508;54.368;18.406;2023-12-29T05:25:05;4.25;;;2.58;;
68315;SDS011;55508;54.368;18.406;2023-12-29T05:27:33;4.50;;;2.65;;
68315;SDS011;55508;54.368;18.406;2023-12-29T05:30:01;7.47;;;3.30;;
68315;SDS011;55508;54.368;18.406;2023-12-29T05:32:29;3.53;;;2.15;;
68315;SDS011;55508;54.368;18.406;2023-12-29T05:34:56;5.13;;;2.85;;
68315;SDS011;55508;54.368;18.406;2023-12-29T05:37:23;7.55;;;4.10;;
68315;SDS011;55508;54.368;18.406;2023-12-29T05:39:51;8.52;;;4.60;;
68315;SDS011;55508;54.368;18.406;2023-12-29T05:42:18;4.63;;;3.60;;
68315;SDS011;55508;54.368;18.406;2023-12-29T05:44:45;5.22;;;2.95;;
68315;SDS011;55508;54.368;18.406;2023-12-29T05:47:12;5.22;;;2.78;;
68315;SDS011;55508;54.368;18.406;2023-12-29T05:49:39;5.85;;;3.00;;
68315;SDS011;55508;54.368;18.406;2023-12-29T05:52:06;4.30;;;2.90;;
68315;SDS011;55508;54.368;18.406;2023-12-29T05:54:34;3.78;;;2.45;;
68315;SDS011;55508;54.368;18.406;2023-12-29T05:57:01;4.57;;;3.10;;
68315;SDS011;55508;54.368;18.406;2023-12-29T05:59:29;6.85;;;3.53;;
68315;SDS011;55508;54.368;18.406;2023-12-29T06:01:56;6.50;;;3.58;;
68315;SDS011;55508;54.368;18.406;2023-12-29T06:04:23;4.93;;;2.92;;
68315;SDS011;55508;54.368;18.406;2023-12-29T06:06:50;4.28;;;3.00;;
68315;SDS011;55508;54.368;18.406;2023-12-29T06:09:18;6.90;;;4.07;;
68315;SDS011;55508;54.368;18.406;2023-12-29T06:11:45;7.95;;;3.85;;
68315;SDS011;55508;54.368;18.406;2023-12-29T06:14:12;6.65;;;3.58;;
68315;SDS011;55508;54.368;18.406;2023-12-29T06:16:39;7.53;;;3.83;;
68315;SDS011;55508;54.368;18.406;2023-12-29T06:19:07;9.48;;;3.67;;
68315;SDS011;55508;54.368;18.406;2023-12-29T06:21:41;9.80;;;4.28;;
68315;SDS011;55508;54.368;18.406;2023-12-29T06:24:12;10.30;;;5.05;;
68315;SDS011;55508;54.368;18.406;2023-12-29T06:26:39;10.25;;;5.28;;
68315;SDS011;55508;54.368;18.406;2023-12-29T06:29:10;10.10;;;5.20;;
68315;SDS011;55508;54.368;18.406;2023-12-29T06:31:40;7.38;;;4.70;;
68315;SDS011;55508;54.368;18.406;2023-12-29T06:34:11;9.07;;;4.45;;
68315;SDS011;55508;54.368;18.406;2023-12-29T06:36:38;7.07;;;4.60;;
68315;SDS011;55508;54.368;18.406;2023-12-29T06:39:06;8.10;;;4.53;;
68315;SDS011;55508;54.368;18.406;2023-12-29T06:41:33;8.15;;;4.57;;
68315;SDS011;55508;54.368;18.406;2023-12-29T06:44:00;11.85;;;5.10;;
68315;SDS011;55508;54.368;18.406;2023-12-29T06:46:27;4.60;;;2.80;;
68315;SDS011;55508;54.368;18.406;2023-12-29T06:48:55;7.97;;;3.92;;
68315;SDS011;55508;54.368;18.406;2023-12-29T06:51:22;10.05;;;5.32;;
68315;SDS011;55508;54.368;18.406;2023-12-29T06:53:50;5.57;;;3.38;;
68315;SDS011;55508;54.368;18.406;2023-12-29T06:56:17;7.63;;;4.35;;
68315;SDS011;55508;54.368;18.406;2023-12-29T06:58:45;6.53;;;3.50;;
68315;SDS011;55508;54.368;18.406;2023-12-29T07:01:12;9.38;;;4.75;;
68315;SDS011;55508;54.368;18.406;2023-12-29T07:03:40;8.25;;;4.50;;
68315;SDS011;55508;54.368;18.406;2023-12-29T07:06:09;7.82;;;4.05;;
68315;SDS011;55508;54.368;18.406;2023-12-29T07:08:36;9.07;;;3.95;;
68315;SDS011;55508;54.368;18.406;2023-12-29T07:11:03;6.20;;;3.92;;
68315;SDS011;55508;54.368;18.406;2023-12-29T07:13:30;7.00;;;4.10;;
68315;SDS011;55508;54.368;18.406;2023-12-29T07:15:57;9.15;;;5.10;;
68315;SDS011;55508;54.368;18.406;2023-12-29T07:18:25;6.15;;;4.45;;
68315;SDS011;55508;54.368;18.406;2023-12-29T07:20:52;7.05;;;4.43;;
68315;SDS011;55508;54.368;18.406;2023-12-29T07:23:19;6.55;;;4.40;;
68315;SDS011;55508;54.368;18.406;2023-12-29T07:25:47;5.15;;;2.67;;
68315;SDS011;55508;54.368;18.406;2023-12-29T07:28:15;6.07;;;3.97;;
68315;SDS011;55508;54.368;18.406;2023-12-29T07:30:42;4.47;;;2.90;;
68315;SDS011;55508;54.368;18.406;2023-12-29T07:33:09;5.68;;;3.35;;
68315;SDS011;55508;54.368;18.406;2023-12-29T07:35:37;4.47;;;3.70;;
68315;SDS011;55508;54.368;18.406;2023-12-29T07:38:04;4.85;;;2.83;;
68315;SDS011;55508;54.368;18.406;2023-12-29T07:40:31;5.25;;;2.90;;
68315;SDS011;55508;54.368;18.406;2023-12-29T07:42:58;6.25;;;3.70;;
68315;SDS011;55508;54.368;18.406;2023-12-29T07:45:26;6.93;;;3.63;;
68315;SDS011;55508;54.368;18.406;2023-12-29T07:47:53;5.80;;;3.30;;
68315;SDS011;55508;54.368;18.406;2023-12-29T07:50:20;4.88;;;3.70;;
68315;SDS011;55508;54.368;18.406;2023-12-29T07:52:47;6.25;;;3.30;;
68315;SDS011;55508;54.368;18.406;2023-12-29T07:55:14;7.80;;;3.70;;
68315;SDS011;55508;54.368;18.406;2023-12-29T07:57:43;6.22;;;4.03;;
68315;SDS011;55508;54.368;18.406;2023-12-29T08:00:10;17.70;;;5.00;;
68315;SDS011;55508;54.368;18.406;2023-12-29T08:02:38;4.38;;;3.40;;
68315;SDS011;55508;54.368;18.406;2023-12-29T08:05:05;6.13;;;3.50;;
68315;SDS011;55508;54.368;18.406;2023-12-29T08:07:37;3.85;;;3.30;;
68315;SDS011;55508;54.368;18.406;2023-12-29T08:10:07;4.78;;;3.10;;
68315;SDS011;55508;54.368;18.406;2023-12-29T08:12:35;8.02;;;3.83;;
68315;SDS011;55508;54.368;18.406;2023-12-29T08:15:03;4.03;;;2.70;;
68315;SDS011;55508;54.368;18.406;2023-12-29T08:17:30;3.45;;;2.85;;
68315;SDS011;55508;54.368;18.406;2023-12-29T08:19:58;4.07;;;2.92;;
68315;SDS011;55508;54.368;18.406;2023-12-29T08:22:27;5.75;;;2.58;;
68315;SDS011;55508;54.368;18.406;2023-12-29T08:24:56;3.63;;;2.45;;
68315;SDS011;55508;54.368;18.406;2023-12-29T08:27:24;7.10;;;5.25;;
68315;SDS011;55508;54.368;18.406;2023-12-29T08:29:52;5.05;;;2.63;;
68315;SDS011;55508;54.368;18.406;2023-12-29T08:32:20;5.55;;;2.92;;
68315;SDS011;55508;54.368;18.406;2023-12-29T08:34:48;4.32;;;2.58;;
68315;SDS011;55508;54.368;18.406;2023-12-29T08:37:15;4.03;;;2.70;;
68315;SDS011;55508;54.368;18.406;2023-12-29T08:39:47;4.13;;;2.65;;
68315;SDS011;55508;54.368;18.406;2023-12-29T08:42:15;3.05;;;2.53;;
68315;SDS011;55508;54.368;18.406;2023-12-29T08:44:43;5.95;;;2.90;;
68315;SDS011;55508;54.368;18.406;2023-12-29T08:47:10;4.18;;;2.53;;
68315;SDS011;55508;54.368;18.406;2023-12-29T08:49:37;3.80;;;2.38;;
68315;SDS011;55508;54.368;18.406;2023-12-29T08:52:05;3.05;;;2.45;;
68315;SDS011;55508;54.368;18.406;2023-12-29T08:54:32;4.53;;;3.03;;
68315;SDS011;55508;54.368;18.406;2023-12-29T08:57:01;2.80;;;2.50;;
68315;SDS011;55508;54.368;18.406;2023-12-29T08:59:28;2.47;;;2.28;;
68315;SDS011;55508;54.368;18.406;2023-12-29T09:01:55;4.65;;;2.85;;
68315;SDS011;55508;54.368;18.406;2023-12-29T09:04:22;2.97;;;2.15;;
68315;SDS011;55508;54.368;18.406;2023-12-29T09:06:50;3.17;;;2.67;;
68315;SDS011;55508;54.368;18.406;2023-12-29T09:09:17;5.05;;;2.60;;
68315;SDS011;55508;54.368;18.406;2023-12-29T09:11:45;4.15;;;3.33;;
68315;SDS011;55508;54.368;18.406;2023-12-29T09:14:12;5.00;;;2.90;;
68315;SDS011;55508;54.368;18.406;2023-12-29T09:16:40;4.22;;;3.35;;
68315;SDS011;55508;54.368;18.406;2023-12-29T09:19:10;4.10;;;3.50;;
68315;SDS011;55508;54.368;18.406;2023-12-29T09:21:40;3.40;;;2.80;;
68315;SDS011;55508;54.368;18.406;2023-12-29T09:24:08;4.50;;;3.33;;
68315;SDS011;55508;54.368;18.406;2023-12-29T09:26:35;6.07;;;3.53;;
68315;SDS011;55508;54.368;18.406;2023-12-29T09:29:02;3.95;;;3.55;;
68315;SDS011;55508;54.368;18.406;2023-12-29T09:31:29;8.25;;;3.55;;
68315;SDS011;55508;54.368;18.406;2023-12-29T09:33:57;6.18;;;3.33;;
68315;SDS011;55508;54.368;18.406;2023-12-29T09:36:24;5.65;;;3.38;;
68315;SDS011;55508;54.368;18.406;2023-12-29T09:38:51;4.00;;;3.60;;
68315;SDS011;55508;54.368;18.406;2023-12-29T09:41:19;3.55;;;3.25;;
68315;SDS011;55508;54.368;18.406;2023-12-29T09:43:48;9.68;;;4.55;;
68315;SDS011;55508;54.368;18.406;2023-12-29T09:46:21;7.47;;;4.22;;
68315;SDS011;55508;54.368;18.406;2023-12-29T09:48:51;5.88;;;4.45;;
68315;SDS011;55508;54.368;18.406;2023-12-29T09:51:19;7.32;;;5.47;;
68315;SDS011;55508;54.368;18.406;2023-12-29T09:53:50;16.20;;;8.75;;
68315;SDS011;55508;54.368;18.406;2023-12-29T09:56:18;6.80;;;4.07;;
68315;SDS011;55508;54.368;18.406;2023-12-29T09:58:47;14.63;;;6.82;;
68315;SDS011;55508;54.368;18.406;2023-12-29T10:01:14;5.32;;;3.40;;
68315;SDS011;55508;54.368;18.406;2023-12-29T10:03:46;5.10;;;3.13;;
68315;SDS011;55508;54.368;18.406;2023-12-29T10:06:15;10.88;;;5.78;;
68315;SDS011;55508;54.368;18.406;2023-12-29T10:08:48;30.38;;;12.45;;
68315;SDS011;55508;54.368;18.406;2023-12-29T10:11:17;6.88;;;4.50;;
68315;SDS011;55508;54.368;18.406;2023-12-29T10:13:49;7.05;;;4.30;;
68315;SDS011;55508;54.368;18.406;2023-12-29T10:16:20;8.50;;;5.97;;
68315;SDS011;55508;54.368;18.406;2023-12-29T10:21:54;12.45;;;6.88;;
68315;SDS011;55508;54.368;18.406;2023-12-29T10:24:25;8.77;;;5.88;;
68315;SDS011;55508;54.368;18.406;2023-12-29T10:26:52;12.48;;;7.75;;
68315;SDS011;55508;54.368;18.406;2023-12-29T10:29:21;11.45;;;6.90;;
68315;SDS011;55508;54.368;18.406;2023-12-29T10:31:48;12.68;;;7.03;;
68315;SDS011;55508;54.368;18.406;2023-12-29T10:34:17;9.18;;;6.00;;
68315;SDS011;55508;54.368;18.406;2023-12-29T10:36:47;13.95;;;7.43;;
68315;SDS011;55508;54.368;18.406;2023-12-29T10:39:15;7.72;;;5.15;;
68315;SDS011;55508;54.368;18.406;2023-12-29T10:41:43;4.97;;;3.92;;
68315;SDS011;55508;54.368;18.406;2023-12-29T10:44:10;4.75;;;4.28;;
68315;SDS011;55508;54.368;18.406;2023-12-29T10:46:38;5.93;;;3.95;;
68315;SDS011;55508;54.368;18.406;2023-12-29T10:49:09;4.47;;;3.67;;
68315;SDS011;55508;54.368;18.406;2023-12-29T10:51:37;5.75;;;4.15;;
68315;SDS011;55508;54.368;18.406;2023-12-29T10:54:05;7.28;;;4.22;;
68315;SDS011;55508;54.368;18.406;2023-12-29T10:56:33;3.28;;;2.65;;
68315;SDS011;55508;54.368;18.406;2023-12-29T10:59:01;3.97;;;3.10;;
68315;SDS011;55508;54.368;18.406;2023-12-29T11:01:32;3.92;;;3.28;;
68315;SDS011;55508;54.368;18.406;2023-12-29T11:04:01;4.53;;;3.90;;
68315;SDS011;55508;54.368;18.406;2023-12-29T11:06:30;5.97;;;2.70;;
68315;SDS011;55508;54.368;18.406;2023-12-29T11:09:07;6.57;;;4.30;;
68315;SDS011;55508;54.368;18.406;2023-12-29T11:11:34;4.05;;;3.30;;
68315;SDS011;55508;54.368;18.406;2023-12-29T11:14:02;3.63;;;3.33;;
68315;SDS011;55508;54.368;18.406;2023-12-29T11:16:30;4.15;;;2.03;;
68315;SDS011;55508;54.368;18.406;2023-12-29T11:18:58;2.40;;;1.70;;
68315;SDS011;55508;54.368;18.406;2023-12-29T11:21:26;4.03;;;2.67;;
68315;SDS011;55508;54.368;18.406;2023-12-29T11:23:54;3.03;;;2.33;;
68315;SDS011;55508;54.368;18.406;2023-12-29T11:26:21;3.92;;;1.63;;
68315;SDS011;55508;54.368;18.406;2023-12-29T11:28:49;4.20;;;1.30;;
68315;SDS011;55508;54.368;18.406;2023-12-29T11:31:17;4.47;;;2.13;;
68315;SDS011;55508;54.368;18.406;2023-12-29T11:33:57;5.25;;;2.50;;
68315;SDS011;55508;54.368;18.406;2023-12-29T11:36:29;5.90;;;2.80;;
68315;SDS011;55508;54.368;18.406;2023-12-29T11:41:51;5.13;;;2.30;;
68315;SDS011;55508;54.368;18.406;2023-12-29T11:44:25;7.28;;;3.60;;
68315;SDS011;55508;54.368;18.406;2023-12-29T11:46:56;8.88;;;3.10;;
68315;SDS011;55508;54.368;18.406;2023-12-29T11:49:27;6.57;;;3.22;;
68315;SDS011;55508;54.368;18.406;2023-12-29T11:52:34;6.78;;;2.17;;
68315;SDS011;55508;54.368;18.406;2023-12-29T11:55:09;5.97;;;3.20;;
68315;SDS011;55508;54.368;18.406;2023-12-29T11:57:41;7.32;;;3.03;;
68315;SDS011;55508;54.368;18.406;2023-12-29T12:00:09;6.65;;;2.88;;
68315;SDS011;55508;54.368;18.406;2023-12-29T12:02:37;6.68;;;3.08;;
68315;SDS011;55508;54.368;18.406;2023-12-29T12:05:05;4.63;;;2.42;;
68315;SDS011;55508;54.368;18.406;2023-12-29T12:10:31;6.40;;;2.30;;
68315;SDS011;55508;54.368;18.406;2023-12-29T12:13:00;7.10;;;2.50;;
68315;SDS011;55508;54.368;18.406;2023-12-29T12:15:31;5.28;;;2.22;;
68315;SDS011;55508;54.368;18.406;2023-12-29T12:18:00;4.78;;;2.00;;
68315;SDS011;55508;54.368;18.406;2023-12-29T12:20:31;4.90;;;1.70;;
68315;SDS011;55508;54.368;18.406;2023-12-29T12:23:00;3.28;;;1.52;;
68315;SDS011;55508;54.368;18.406;2023-12-29T12:25:47;6.22;;;1.55;;
68315;SDS011;55508;54.368;18.406;2023-12-29T12:28:16;3.13;;;2.03;;
68315;SDS011;55508;54.368;18.406;2023-12-29T12:30:44;6.38;;;2.65;;
68315;SDS011;55508;54.368;18.406;2023-12-29T12:33:12;6.13;;;2.22;;
68315;SDS011;55508;54.368;18.406;2023-12-29T12:35:41;6.82;;;2.78;;
68315;SDS011;55508;54.368;18.406;2023-12-29T12:38:15;11.20;;;3.53;;
68315;SDS011;55508;54.368;18.406;2023-12-29T12:40:51;4.55;;;2.30;;
68315;SDS011;55508;54.368;18.406;2023-12-29T12:43:18;12.95;;;5.05;;
68315;SDS011;55508;54.368;18.406;2023-12-29T12:45:54;13.85;;;6.32;;
68315;SDS011;55508;54.368;18.406;2023-12-29T12:48:23;9.25;;;4.57;;
68315;SDS011;55508;54.368;18.406;2023-12-29T12:50:55;9.70;;;4.68;;
68315;SDS011;55508;54.368;18.406;2023-12-29T12:53:23;10.82;;;5.05;;
68315;SDS011;55508;54.368;18.406;2023-12-29T12:55:51;8.32;;;3.58;;
68315;SDS011;55508;54.368;18.406;2023-12-29T12:58:19;7.88;;;3.15;;
68315;SDS011;55508;54.368;18.406;2023-12-29T13:00:50;8.60;;;4.00;;
68315;SDS011;55508;54.368;18.406;2023-12-29T13:03:21;8.45;;;4.03;;
68315;SDS011;55508;54.368;18.406;2023-12-29T13:05:48;15.23;;;6.88;;
68315;SDS011;55508;54.368;18.406;2023-12-29T13:08:16;11.15;;;4.80;;
68315;SDS011;55508;54.368;18.406;2023-12-29T13:10:59;7.40;;;1.88;;
68315;SDS011;55508;54.368;18.406;2023-12-29T13:13:39;4.93;;;1.73;;
68315;SDS011;55508;54.368;18.406;2023-12-29T13:16:13;3.83;;;2.08;;
68315;SDS011;55508;54.368;18.406;2023-12-29T13:18:41;3.55;;;1.67;;
68315;SDS011;55508;54.368;18.406;2023-12-29T13:21:08;5.93;;;2.30;;
68315;SDS011;55508;54.368;18.406;2023-12-29T13:23:36;4.72;;;2.08;;
68315;SDS011;55508;54.368;18.406;2023-12-29T13:26:07;4.38;;;2.80;;
68315;SDS011;55508;54.368;18.406;2023-12-29T13:28:36;6.07;;;3.10;;
68315;SDS011;55508;54.368;18.406;2023-12-29T13:31:07;5.93;;;2.78;;
68315;SDS011;55508;54.368;18.406;2023-12-29T13:33:46;4.93;;;2.72;;
68315;SDS011;55508;54.368;18.406;2023-12-29T13:36:29;3.90;;;2.30;;
68315;SDS011;55508;54.368;18.406;2023-12-29T13:39:10;4.20;;;2.55;;
68315;SDS011;55508;54.368;18.406;2023-12-29T13:41:44;5.18;;;3.15;;
68315;SDS011;55508;54.368;18.406;2023-12-29T13:44:12;5.35;;;2.85;;
68315;SDS011;55508;54.368;18.406;2023-12-29T13:46:40;3.90;;;2.30;;
68315;SDS011;55508;54.368;18.406;2023-12-29T13:49:07;5.95;;;3.40;;
68315;SDS011;55508;54.368;18.406;2023-12-29T13:51:35;2.90;;;2.38;;
68315;SDS011;55508;54.368;18.406;2023-12-29T13:54:02;3.67;;;2.47;;
68315;SDS011;55508;54.368;18.406;2023-12-29T13:56:30;4.55;;;2.80;;
68315;SDS011;55508;54.368;18.406;2023-12-29T13:58:57;4.50;;;3.22;;
68315;SDS011;55508;54.368;18.406;2023-12-29T14:01:37;6.95;;;3.25;;
68315;SDS011;55508;54.368;18.406;2023-12-29T14:04:06;5.75;;;3.78;;
68315;SDS011;55508;54.368;18.406;2023-12-29T14:06:38;5.55;;;3.45;;
68315;SDS011;55508;54.368;18.406;2023-12-29T14:09:15;9.75;;;4.93;;
68315;SDS011;55508;54.368;18.406;2023-12-29T14:11:44;11.80;;;5.05;;
68315;SDS011;55508;54.368;18.406;2023-12-29T14:14:12;9.20;;;5.00;;
68315;SDS011;55508;54.368;18.406;2023-12-29T14:16:42;10.88;;;4.32;;
68315;SDS011;55508;54.368;18.406;2023-12-29T14:19:10;8.07;;;4.68;;
68315;SDS011;55508;54.368;18.406;2023-12-29T14:21:37;10.38;;;4.78;;
68315;SDS011;55508;54.368;18.406;2023-12-29T14:24:10;11.50;;;5.00;;
68315;SDS011;55508;54.368;18.406;2023-12-29T14:26:38;7.78;;;4.88;;
68315;SDS011;55508;54.368;18.406;2023-12-29T14:29:13;9.05;;;4.43;;
68315;SDS011;55508;54.368;18.406;2023-12-29T14:31:41;8.95;;;5.63;;
68315;SDS011;55508;54.368;18.406;2023-12-29T14:34:09;12.95;;;5.82;;
68315;SDS011;55508;54.368;18.406;2023-12-29T14:36:37;9.35;;;6.28;;
68315;SDS011;55508;54.368;18.406;2023-12-29T14:39:06;15.48;;;8.50;;
68315;SDS011;55508;54.368;18.406;2023-12-29T14:41:33;18.02;;;10.13;;
68315;SDS011;55508;54.368;18.406;2023-12-29T14:44:00;15.98;;;8.95;;
68315;SDS011;55508;54.368;18.406;2023-12-29T14:46:27;13.85;;;8.52;;
68315;SDS011;55508;54.368;18.406;2023-12-29T14:48:56;17.60;;;8.98;;
68315;SDS011;55508;54.368;18.406;2023-12-29T14:51:24;13.10;;;8.48;;
68315;SDS011;55508;54.368;18.406;2023-12-29T14:53:52;12.65;;;6.25;;
68315;SDS011;55508;54.368;18.406;2023-12-29T14:56:19;12.95;;;6.50;;
68315;SDS011;55508;54.368;18.406;2023-12-29T14:58:46;14.27;;;6.68;;